Saint George, Maine
Current Conditions -  °F | °C
As of 3:35 AM on Sunday 26 Oct 2014 (Local Time) from KRKD Reporting Station
Broken Clouds Broken Clouds  
Wind Chill: 48°   Ceiling: 6500
Heat Index: 48°   Visibility: 10mi
Dew Point: 46°   Wind: 0mph
Humidity: 93%   Direction: NA
Pressure: 29.38"   Gusts: NA
Location:  44.02°N, 69.2°W
Report Text: KRKD 260735Z AUTO 00000KT 10SM BKN065 BKN080 09/08 A2938 RMK AO1
Loading
Personal Weather Stations






























Interactive Weather Map
Tropical Storm Tracking
New forecast layout! Learn more

10-Day Weather Forecast

Advertisements
Track Severe Weather on mobile